Time;durP1;ratioP1;P1;durP2;ratioP2;P2;SDS_P1;SDS_P2;PMS_P1;PMS_P2;Temp;Humidity;BMP_temperature;BMP_pressure;BME280_temperature;BME280_humidity;BME280_pressure;Samples;Min_cycle;Max_cycle;Signal;HPM_P1;HPM_P2
2022/11/03 00:01:33;;;;;;;11.77;4.10;;;11.50;99.90;;;;;;5094745;28;20165;-65
2022/11/03 00:03:58;;;;;;;11.90;4.27;;;11.50;99.90;;;;;;5096092;28;20173;-65
2022/11/03 00:06:24;;;;;;;13.10;4.85;;;11.50;99.90;;;;;;5094608;28;20197;-64
2022/11/03 00:08:50;;;;;;;10.60;4.25;;;11.50;99.90;;;;;;5096578;28;20238;-65
2022/11/03 00:11:17;;;;;;;12.93;4.30;;;11.50;99.90;;;;;;5095853;28;20172;-66
2022/11/03 00:13:44;;;;;;;13.53;4.50;;;11.50;99.90;;;;;;5096123;28;20161;-64
2022/11/03 00:16:11;;;;;;;13.27;4.97;;;11.60;99.90;;;;;;5095434;28;20201;-64
2022/11/03 00:18:37;;;;;;;12.27;4.93;;;11.60;99.90;;;;;;5095663;28;20173;-64
2022/11/03 00:21:08;;;;;;;12.73;4.53;;;11.60;99.90;;;;;;5094514;28;20247;-64
2022/11/03 00:23:36;;;;;;;11.77;4.27;;;11.60;99.90;;;;;;5095691;28;20166;-65
2022/11/03 00:26:10;;;;;;;8.30;4.90;;;11.60;99.90;;;;;;5095696;28;20197;-64
2022/11/03 00:28:37;;;;;;;10.83;4.10;;;11.50;99.90;;;;;;5094178;28;20205;-64
2022/11/03 00:31:07;;;;;;;10.70;4.20;;;11.50;99.90;;;;;;5095767;28;20169;-64
2022/11/03 00:33:34;;;;;;;14.63;5.07;;;11.40;99.90;;;;;;5095731;28;20195;-64
2022/11/03 00:36:00;;;;;;;15.80;5.70;;;11.40;99.90;;;;;;5095568;28;20189;-64
2022/11/03 00:38:27;;;;;;;11.77;4.37;;;11.50;99.90;;;;;;5095614;28;20252;-64
2022/11/03 00:40:57;;;;;;;16.23;4.77;;;11.40;99.90;;;;;;5093874;28;20185;-64
2022/11/03 00:43:24;;;;;;;11.20;4.33;;;11.40;99.90;;;;;;5095170;28;20284;-64
2022/11/03 00:45:50;;;;;;;10.60;5.90;;;11.40;99.90;;;;;;5094721;28;20669;-64
2022/11/03 00:48:28;;;;;;;13.53;4.80;;;11.50;99.90;;;;;;5093821;28;20227;-64
2022/11/03 00:51:05;;;;;;;9.63;4.80;;;11.50;99.90;;;;;;5095175;28;20150;-64
2022/11/03 00:53:33;;;;;;;7.27;4.10;;;11.50;99.90;;;;;;5095075;28;20165;-65
2022/11/03 00:56:00;;;;;;;10.07;3.97;;;11.50;99.90;;;;;;5094950;28;20280;-65
2022/11/03 00:58:25;;;;;;;9.77;4.40;;;11.50;99.90;;;;;;5094877;28;20522;-64
2022/11/03 01:01:02;;;;;;;11.67;4.37;;;11.50;99.90;;;;;;5094836;28;20187;-65
2022/11/03 01:03:27;;;;;;;11.33;4.87;;;11.50;99.90;;;;;;5095219;28;20253;-64
2022/11/03 01:08:37;;;;;;;12.10;4.30;;;11.60;99.90;;;;;;5095082;28;20212;-64
2022/11/03 01:13:49;;;;;;;13.67;4.60;;;11.50;99.90;;;;;;5094860;28;20191;-64
2022/11/03 01:16:15;;;;;;;9.50;4.20;;;11.50;99.90;;;;;;5094317;28;20583;-65
2022/11/03 01:18:41;;;;;;;14.63;4.33;;;11.60;99.90;;;;;;5093255;28;20185;-64
2022/11/03 01:21:06;;;;;;;8.30;4.10;;;11.60;99.90;;;;;;5094481;28;20201;-64
2022/11/03 01:23:34;;;;;;;13.67;4.70;;;11.70;99.90;;;;;;5094806;28;20712;-64
2022/11/03 01:26:04;;;;;;;10.93;4.50;;;11.60;99.90;;;;;;5094360;28;20196;-64
2022/11/03 01:28:32;;;;;;;12.43;4.50;;;11.60;99.90;;;;;;5094569;28;20238;-64
2022/11/03 01:31:05;;;;;;;11.90;4.23;;;11.70;99.90;;;;;;5094391;28;20204;-64
2022/11/03 01:33:31;;;;;;;9.80;4.03;;;11.70;99.90;;;;;;5093990;28;20634;-64
2022/11/03 01:35:57;;;;;;;19.03;4.37;;;11.60;99.90;;;;;;5094384;28;20192;-64
2022/11/03 01:38:23;;;;;;;12.00;4.10;;;11.60;99.90;;;;;;5093011;28;20231;-64
2022/11/03 01:40:49;;;;;;;8.97;3.90;;;11.70;99.90;;;;;;5094171;28;20177;-64
2022/11/03 01:43:20;;;;;;;8.13;3.87;;;11.70;99.90;;;;;;5094047;28;20214;-64
2022/11/03 01:45:48;;;;;;;8.63;3.80;;;11.70;99.90;;;;;;5092707;28;20219;-64
2022/11/03 01:48:17;;;;;;;10.00;4.40;;;11.70;99.90;;;;;;5092735;28;20261;-64
2022/11/03 01:50:44;;;;;;;11.57;4.30;;;11.70;99.90;;;;;;5094275;28;20168;-64
2022/11/03 01:53:12;;;;;;;13.30;4.20;;;11.70;99.90;;;;;;5094445;28;20642;-64
2022/11/03 01:55:41;;;;;;;12.73;3.70;;;11.60;99.90;;;;;;5093852;28;20189;-65
2022/11/03 01:58:21;;;;;;;15.97;4.27;;;11.60;99.90;;;;;;5094443;28;20252;-65
2022/11/03 02:00:49;;;;;;;8.37;3.63;;;11.60;99.90;;;;;;5094522;28;20594;-65
2022/11/03 02:03:16;;;;;;;14.07;4.37;;;11.60;99.90;;;;;;5093785;28;20177;-64
2022/11/03 02:05:45;;;;;;;15.90;3.87;;;11.60;99.90;;;;;;5093606;28;20692;-65
2022/11/03 02:08:20;;;;;;;8.70;3.95;;;11.60;99.90;;;;;;5093587;28;20236;-64
2022/11/03 02:10:49;;;;;;;15.90;4.20;;;11.60;99.90;;;;;;5093691;28;20185;-65
2022/11/03 02:13:26;;;;;;;8.93;4.40;;;11.50;99.90;;;;;;5093600;28;20608;-65
2022/11/03 02:15:56;;;;;;;10.93;3.90;;;11.50;99.90;;;;;;5093437;28;20212;-65
2022/11/03 02:18:28;;;;;;;12.33;4.20;;;11.50;99.90;;;;;;5092387;28;20170;-64
2022/11/03 02:21:04;;;;;;;15.00;4.63;;;11.40;99.90;;;;;;5093934;28;20187;-64
2022/11/03 02:23:47;;;;;;;8.40;4.03;;;11.40;99.90;;;;;;5093941;28;20251;-64
2022/11/03 02:26:15;;;;;;;13.47;4.70;;;11.40;99.90;;;;;;5093596;28;20199;-64
2022/11/03 02:28:41;;;;;;;9.80;4.00;;;11.40;99.90;;;;;;5092132;28;20208;-65
2022/11/03 02:31:27;;;;;;;14.43;4.63;;;11.40;99.90;;;;;;5093301;28;20214;-64
2022/11/03 02:34:02;;;;;;;13.02;4.43;;;11.40;99.90;;;;;;5093695;28;20161;-65
2022/11/03 02:36:30;;;;;;;17.57;5.23;;;11.40;99.90;;;;;;5092170;28;20279;-65
2022/11/03 02:39:26;;;;;;;12.37;4.30;;;11.40;99.90;;;;;;5093405;28;20173;-64
2022/11/03 02:41:55;;;;;;;12.47;3.83;;;11.40;99.90;;;;;;5093620;28;20187;-65
2022/11/03 02:44:21;;;;;;;8.37;4.10;;;11.30;99.90;;;;;;5094634;28;20562;-65
2022/11/03 02:46:56;;;;;;;17.10;4.77;;;11.30;99.90;;;;;;5097304;28;20200;-65
2022/11/03 02:49:22;;;;;;;11.73;4.27;;;11.30;99.90;;;;;;5097648;28;20180;-65
2022/11/03 02:51:47;;;;;;;9.70;3.77;;;11.30;99.90;;;;;;5097342;28;20223;-65
2022/11/03 02:54:24;;;;;;;11.87;4.37;;;11.30;99.90;;;;;;5097310;28;20180;-65
2022/11/03 02:56:56;;;;;;;13.07;4.20;;;11.30;99.90;;;;;;5097606;28;20245;-64
2022/11/03 02:59:29;;;;;;;11.90;4.33;;;11.40;99.90;;;;;;5097551;28;20165;-65
2022/11/03 03:02:08;;;;;;;21.13;4.83;;;11.40;99.90;;;;;;5097211;28;20248;-65
2022/11/03 03:04:38;;;;;;;8.37;3.63;;;11.40;99.90;;;;;;5097813;28;20162;-65
2022/11/03 03:07:34;;;;;;;12.87;4.63;;;11.30;99.90;;;;;;5095801;28;20681;-65
2022/11/03 03:10:19;;;;;;;10.93;4.20;;;11.30;99.90;;;;;;5096527;28;20307;-64
2022/11/03 03:12:48;;;;;;;8.20;3.80;;;11.30;99.90;;;;;;5097465;28;20192;-64
2022/11/03 03:15:17;;;;;;;11.33;4.27;;;11.40;99.90;;;;;;5097161;28;20665;-65
2022/11/03 03:17:54;;;;;;;9.20;3.90;;;11.30;99.90;;;;;;5096793;28;20169;-65
2022/11/03 03:20:27;;;;;;;10.80;4.63;;;11.30;99.90;;;;;;5096831;28;20245;-65
2022/11/03 03:23:15;;;;;;;5.90;3.60;;;11.30;99.90;;;;;;5096947;28;20186;-64
2022/11/03 03:26:06;;;;;;;12.37;4.47;;;11.30;99.90;;;;;;5096822;28;20216;-65
2022/11/03 03:28:46;;;;;;;12.93;4.30;;;11.30;99.90;;;;;;5096641;28;20197;-64
2022/11/03 03:31:15;;;;;;;7.17;3.47;;;11.30;99.90;;;;;;5096618;28;20203;-65
2022/11/03 03:33:43;;;;;;;7.50;3.93;;;11.30;99.90;;;;;;5096563;28;20176;-64
2022/11/03 03:36:13;;;;;;;8.70;4.20;;;11.20;99.90;;;;;;5095270;28;20565;-64
2022/11/03 03:38:43;;;;;;;8.30;3.73;;;11.20;99.90;;;;;;5096512;28;20281;-64
2022/11/03 03:41:12;;;;;;;12.20;3.97;;;11.20;99.90;;;;;;5096535;28;20173;-65
2022/11/03 03:43:39;;;;;;;8.77;4.00;;;11.20;99.90;;;;;;5096813;28;20195;-65
2022/11/03 03:46:08;;;;;;;9.17;3.63;;;11.20;99.90;;;;;;5096324;28;20212;-65
2022/11/03 03:48:35;;;;;;;11.83;4.23;;;11.10;99.90;;;;;;5096621;28;20242;-65
2022/11/03 03:51:01;;;;;;;13.70;4.30;;;11.10;99.90;;;;;;5095828;28;20660;-65
2022/11/03 03:53:29;;;;;;;9.07;3.93;;;11.10;99.90;;;;;;5095149;28;20177;-64
2022/11/03 03:55:56;;;;;;;9.00;4.00;;;11.10;99.90;;;;;;5096471;28;20189;-64
2022/11/03 03:58:22;;;;;;;12.13;4.10;;;11.20;99.90;;;;;;5096284;28;20169;-64
2022/11/03 04:00:47;;;;;;;12.57;4.07;;;11.20;99.90;;;;;;5096304;28;20705;-68
2022/11/03 04:03:24;;;;;;;12.87;4.13;;;11.20;99.90;;;;;;5096088;28;20205;-68
2022/11/03 04:05:50;;;;;;;10.30;3.97;;;11.30;99.90;;;;;;5096127;28;20235;-67
2022/11/03 04:08:16;;;;;;;8.90;4.13;;;11.40;99.90;;;;;;5096131;28;20278;-68
2022/11/03 04:24:25;;;;;;;10.60;3.87;;;11.40;99.90;;;;;;5096018;28;20630;-68
2022/11/03 04:26:51;;;;;;;12.73;4.03;;;11.50;99.90;;;;;;5095856;28;20275;-68
2022/11/03 04:29:17;;;;;;;9.50;4.30;;;11.40;99.90;;;;;;5095751;28;20202;-68
2022/11/03 04:31:43;;;;;;;11.10;4.40;;;11.40;99.90;;;;;;5095517;28;20633;-68
2022/11/03 04:34:12;;;;;;;9.03;4.20;;;11.40;99.90;;;;;;5095439;28;20177;-68
2022/11/03 04:36:38;;;;;;;13.00;4.40;;;11.40;99.90;;;;;;5095395;28;20242;-68
2022/11/03 04:39:19;;;;;;;15.27;4.80;;;11.40;99.90;;;;;;5094173;28;20172;-68
2022/11/03 04:41:45;;;;;;;10.27;4.10;;;11.40;99.90;;;;;;5095543;28;20216;-69
2022/11/03 04:44:15;;;;;;;19.30;5.20;;;11.50;99.90;;;;;;5095330;28;20265;-69
2022/11/03 04:46:42;;;;;;;10.90;4.23;;;11.50;99.90;;;;;;5095144;28;20711;-68
2022/11/03 04:49:15;;;;;;;13.60;4.20;;;11.50;99.90;;;;;;5095394;28;20193;-68
2022/11/03 04:51:41;;;;;;;13.07;4.20;;;11.60;99.90;;;;;;5095215;28;20191;-68
2022/11/03 04:54:18;;;;;;;12.97;4.40;;;11.60;99.90;;;;;;5095310;28;20621;-68
2022/11/03 04:56:43;;;;;;;13.07;4.23;;;11.60;99.90;;;;;;5095292;28;20661;-68
2022/11/03 04:59:14;;;;;;;8.87;3.67;;;11.70;99.90;;;;;;5095012;28;20256;-68
2022/11/03 05:01:41;;;;;;;12.40;4.60;;;11.70;99.90;;;;;;5095015;28;20691;-68
2022/11/03 05:04:17;;;;;;;15.43;5.00;;;11.60;99.90;;;;;;5094869;28;20171;-68
2022/11/03 05:06:51;;;;;;;12.60;4.03;;;11.60;99.90;;;;;;5094459;28;20203;-68
2022/11/03 05:09:21;;;;;;;10.53;4.13;;;11.60;99.90;;;;;;5095058;28;20258;-69
2022/11/03 05:11:47;;;;;;;8.10;3.47;;;11.60;99.90;;;;;;5094823;28;20177;-68
2022/11/03 05:14:23;;;;;;;11.83;4.67;;;11.60;99.90;;;;;;5093393;28;20177;-68
2022/11/03 05:16:52;;;;;;;6.53;3.70;;;11.60;99.90;;;;;;5094473;28;20185;-68
2022/11/03 05:19:31;;;;;;;9.37;3.90;;;11.60;99.90;;;;;;5094700;28;20584;-68
2022/11/03 05:21:58;;;;;;;11.97;3.97;;;11.60;99.90;;;;;;5094843;28;20210;-68
2022/11/03 05:24:25;;;;;;;8.13;3.93;;;11.60;99.90;;;;;;5094536;28;20204;-68
2022/11/03 05:26:51;;;;;;;11.87;4.47;;;11.60;99.90;;;;;;5093162;28;20677;-68
2022/11/03 05:29:31;;;;;;;12.10;3.90;;;11.50;99.90;;;;;;5094367;28;20201;-68
2022/11/03 05:31:57;;;;;;;10.07;4.00;;;11.50;99.90;;;;;;5094348;28;20173;-68
2022/11/03 05:34:28;;;;;;;10.03;4.00;;;11.50;99.90;;;;;;5094703;28;20183;-68
2022/11/03 05:36:57;;;;;;;7.57;3.67;;;11.50;99.90;;;;;;5094265;28;20555;-68
2022/11/03 05:39:33;;;;;;;9.73;4.30;;;11.50;99.90;;;;;;5094227;28;20184;-68
2022/11/03 05:41:59;;;;;;;9.52;4.05;;;11.50;99.90;;;;;;5094455;28;20191;-68
2022/11/03 05:44:36;;;;;;;9.13;4.33;;;11.50;99.90;;;;;;5094047;28;20527;-69
2022/11/03 05:47:12;;;;;;;7.53;3.63;;;11.50;99.90;;;;;;5094151;28;20200;-68
2022/11/03 05:49:38;;;;;;;13.60;4.32;;;11.50;99.90;;;;;;5092714;28;20197;-68
2022/11/03 05:52:12;;;;;;;9.00;4.27;;;11.40;99.90;;;;;;5094590;28;20180;-68
2022/11/03 05:54:38;;;;;;;10.10;4.07;;;11.40;99.90;;;;;;5094780;28;20160;-68
2022/11/03 05:57:12;;;;;;;7.83;4.03;;;11.40;99.90;;;;;;5092622;28;20200;-68
2022/11/03 05:59:38;;;;;;;10.60;3.97;;;11.40;99.90;;;;;;5094480;28;20172;-67
2022/11/03 06:02:30;;;;;;;11.80;4.10;;;11.50;99.90;;;;;;5093566;28;20169;-68
2022/11/03 06:04:55;;;;;;;9.67;4.27;;;11.50;99.90;;;;;;5093212;28;20280;-68
2022/11/03 06:07:26;;;;;;;7.27;4.17;;;11.60;99.90;;;;;;5093797;28;20205;-67
2022/11/03 06:09:52;;;;;;;9.23;3.97;;;11.60;99.90;;;;;;5093694;28;20205;-68
2022/11/03 06:12:21;;;;;;;10.83;4.17;;;11.60;99.90;;;;;;5093584;28;20174;-68
2022/11/03 06:14:47;;;;;;;9.23;3.97;;;11.60;99.90;;;;;;5092475;28;20166;-68
2022/11/03 06:17:25;;;;;;;11.70;3.50;;;11.60;99.90;;;;;;5093375;28;20193;-68
2022/11/03 06:19:58;;;;;;;7.53;4.13;;;11.70;99.90;;;;;;5093030;28;20248;-68
2022/11/03 06:22:28;;;;;;;9.50;3.50;;;11.70;99.90;;;;;;5093617;28;20302;-68
2022/11/03 06:25:00;;;;;;;12.90;4.43;;;11.80;99.90;;;;;;5093520;28;20538;-68
2022/11/03 06:27:30;;;;;;;8.50;3.83;;;11.90;99.90;;;;;;5093806;28;20610;-68
2022/11/03 06:30:03;;;;;;;9.57;4.50;;;11.90;99.90;;;;;;5094034;28;20189;-68
2022/11/03 06:32:29;;;;;;;8.63;3.90;;;11.90;99.90;;;;;;5093285;28;20157;-68
2022/11/03 06:34:57;;;;;;;7.97;3.73;;;11.90;99.90;;;;;;5093888;28;20188;-68
2022/11/03 06:37:26;;;;;;;7.20;4.00;;;11.90;99.90;;;;;;5092097;28;20177;-68
2022/11/03 06:39:58;;;;;;;9.77;4.33;;;11.90;99.90;;;;;;5092317;28;20264;-68
2022/11/03 06:42:27;;;;;;;11.02;4.22;;;11.90;99.90;;;;;;5092124;28;20188;-68
2022/11/03 06:44:52;;;;;;;12.35;3.80;;;11.90;99.90;;;;;;5092177;28;20732;-67
2022/11/03 06:47:26;;;;;;;8.43;3.57;;;12.00;99.90;;;;;;5093520;28;20252;-68
2022/11/03 06:49:57;;;;;;;8.23;4.20;;;11.90;99.90;;;;;;5092134;28;20197;-68
2022/11/03 06:52:24;;;;;;;9.53;4.63;;;11.90;99.90;;;;;;5092162;28;20244;-68
2022/11/03 06:55:15;;;;;;;11.93;4.30;;;11.90;99.90;;;;;;5093634;28;20162;-68
2022/11/03 06:57:45;;;;;;;13.48;4.50;;;12.00;99.90;;;;;;5093051;28;20280;-68
2022/11/03 07:00:24;;;;;;;15.43;4.90;;;12.10;99.90;;;;;;5093649;28;20204;-68
2022/11/03 07:03:06;;;;;;;11.97;4.40;;;12.10;99.90;;;;;;5093200;28;20687;-68
2022/11/03 07:05:33;;;;;;;10.10;4.10;;;12.10;99.90;;;;;;5093340;28;20189;-68
2022/11/03 07:08:02;;;;;;;10.60;4.05;;;12.10;99.90;;;;;;5093783;28;20553;-68
2022/11/03 07:10:31;;;;;;;6.63;3.60;;;12.10;99.90;;;;;;5092026;28;20210;-69
2022/11/03 07:13:00;;;;;;;9.20;4.32;;;12.10;99.90;;;;;;5093208;28;20173;-68
2022/11/03 07:15:33;;;;;;;8.10;3.58;;;12.10;99.90;;;;;;5091883;28;20194;-68
2022/11/03 07:18:01;;;;;;;7.43;3.42;;;12.10;99.90;;;;;;5093094;28;20158;-68
2022/11/03 07:20:27;;;;;;;9.43;3.97;;;12.10;99.90;;;;;;5092058;28;20166;-69
2022/11/03 07:22:56;;;;;;;11.82;3.95;;;12.10;99.90;;;;;;5093479;28;20161;-68
2022/11/03 07:25:21;;;;;;;9.57;3.95;;;12.00;99.90;;;;;;5093340;28;20223;-68
2022/11/03 07:27:50;;;;;;;9.82;3.60;;;12.00;99.90;;;;;;5091687;28;20208;-69
2022/11/03 07:30:33;;;;;;;9.93;4.03;;;12.00;99.90;;;;;;5092979;28;20166;-68
2022/11/03 07:33:25;;;;;;;6.25;3.92;;;12.10;99.90;;;;;;5096732;28;20161;-68
2022/11/03 07:35:52;;;;;;;12.73;4.37;;;12.10;99.90;;;;;;5093229;28;20285;-68
2022/11/03 07:38:23;;;;;;;7.03;3.73;;;12.10;99.90;;;;;;5096819;28;20158;-68
2022/11/03 07:40:50;;;;;;;7.60;3.90;;;12.00;99.90;;;;;;5096719;28;20161;-68
2022/11/03 07:43:21;;;;;;;7.95;3.90;;;12.10;99.90;;;;;;5095205;28;20185;-68
2022/11/03 07:45:53;;;;;;;11.10;4.10;;;12.10;99.90;;;;;;5096318;28;20212;-67
2022/11/03 07:48:21;;;;;;;7.77;4.20;;;12.10;99.90;;;;;;5096723;28;20193;-68
2022/11/03 07:50:53;;;;;;;10.73;3.93;;;12.10;99.90;;;;;;5096641;28;20172;-68
2022/11/03 07:53:27;;;;;;;11.93;4.77;;;12.20;99.90;;;;;;5095126;28;20188;-68
2022/11/03 07:55:55;;;;;;;8.57;3.63;;;12.30;99.90;;;;;;5094915;28;20197;-68
2022/11/03 07:58:33;;;;;;;12.87;3.70;;;12.30;99.90;;;;;;5096264;28;20173;-68
2022/11/03 08:01:00;;;;;;;10.77;4.40;;;12.40;99.90;;;;;;5096446;28;20158;-69
2022/11/03 08:03:41;;;;;;;8.60;4.28;;;12.30;99.90;;;;;;5096219;28;20531;-69
2022/11/03 08:06:07;;;;;;;9.00;3.42;;;12.40;99.90;;;;;;5096154;28;20656;-68
2022/11/03 08:08:32;;;;;;;8.57;4.00;;;12.40;99.90;;;;;;5096427;28;20250;-69
2022/11/03 08:10:58;;;;;;;10.30;3.77;;;12.40;99.90;;;;;;5096605;28;20223;-68
2022/11/03 08:13:24;;;;;;;12.38;3.92;;;12.40;99.90;;;;;;5096034;28;20649;-68
2022/11/03 08:15:49;;;;;;;8.43;3.77;;;12.40;99.90;;;;;;5095735;28;20204;-68
2022/11/03 08:18:15;;;;;;;11.87;4.23;;;12.40;99.90;;;;;;5096161;28;20168;-68
2022/11/03 08:20:41;;;;;;;10.52;4.47;;;12.40;99.90;;;;;;5096683;28;20256;-69
2022/11/03 08:23:07;;;;;;;8.15;3.85;;;12.40;99.90;;;;;;5096313;28;20169;-69
2022/11/03 08:25:32;;;;;;;5.78;3.28;;;12.50;99.90;;;;;;5096319;28;20204;-65
2022/11/03 08:28:00;;;;;;;12.02;4.53;;;12.50;99.90;;;;;;5095877;28;20165;-65
2022/11/03 08:30:26;;;;;;;6.13;3.47;;;12.50;99.90;;;;;;5096456;28;20162;-65
2022/11/03 08:32:52;;;;;;;7.45;3.78;;;12.60;99.90;;;;;;5095354;28;20169;-65
2022/11/03 08:35:17;;;;;;;10.15;3.88;;;12.70;99.90;;;;;;5095389;28;20280;-65
2022/11/03 08:37:43;;;;;;;10.13;3.80;;;12.70;99.90;;;;;;5095417;28;20252;-65
2022/11/03 08:40:09;;;;;;;8.00;3.33;;;12.80;99.90;;;;;;5095593;28;20177;-65
2022/11/03 08:42:35;;;;;;;6.10;3.35;;;12.90;99.90;;;;;;5094370;28;20755;-64
2022/11/03 08:45:01;;;;;;;6.57;3.47;;;12.90;99.90;;;;;;5095128;28;20221;-65
2022/11/03 08:47:26;;;;;;;5.93;3.55;;;13.00;99.90;;;;;;5093850;28;20185;-65
2022/11/03 08:49:52;;;;;;;5.03;3.35;;;13.10;99.90;;;;;;5095137;28;20274;-65
2022/11/03 08:52:18;;;;;;;6.97;3.28;;;13.10;99.90;;;;;;5095684;28;20156;-65
2022/11/03 08:54:44;;;;;;;7.82;3.60;;;13.10;99.90;;;;;;5095433;28;20557;-65
2022/11/03 08:57:10;;;;;;;8.15;3.60;;;13.10;99.90;;;;;;5094942;28;20189;-65
2022/11/03 08:59:35;;;;;;;6.95;3.63;;;13.10;99.90;;;;;;5095229;28;20165;-65
2022/11/03 09:02:01;;;;;;;8.65;3.53;;;13.20;99.90;;;;;;5095091;28;20592;-65
2022/11/03 09:04:27;;;;;;;12.95;3.88;;;13.20;99.90;;;;;;5095252;28;20170;-65
2022/11/03 09:06:53;;;;;;;10.60;3.75;;;13.10;99.90;;;;;;5095001;28;20201;-65
2022/11/03 09:09:20;;;;;;;7.05;3.80;;;13.20;99.90;;;;;;5093476;28;20669;-65
2022/11/03 09:11:46;;;;;;;8.85;4.05;;;13.20;99.90;;;;;;5093412;28;20184;-65
2022/11/03 09:14:12;;;;;;;5.72;3.38;;;13.20;99.90;;;;;;5095002;28;20618;-64
2022/11/03 09:16:38;;;;;;;11.02;3.53;;;13.30;99.90;;;;;;5094592;28;20193;-65
2022/11/03 09:19:04;;;;;;;6.38;3.30;;;13.40;99.90;;;;;;5094622;28;20165;-64
2022/11/03 09:21:30;;;;;;;6.68;3.40;;;13.40;99.90;;;;;;5093333;28;20184;-64
2022/11/03 09:23:58;;;;;;;8.60;3.55;;;13.50;99.90;;;;;;5095058;28;20514;-65
2022/11/03 09:26:24;;;;;;;9.32;3.42;;;13.50;99.90;;;;;;5094382;28;20189;-65
2022/11/03 09:28:50;;;;;;;10.02;3.67;;;13.50;99.90;;;;;;5093166;28;20216;-65
2022/11/03 09:31:17;;;;;;;5.13;3.60;;;13.60;99.90;;;;;;5093113;28;20641;-65
2022/11/03 09:33:42;;;;;;;8.48;3.47;;;13.60;99.90;;;;;;5094703;28;20169;-65
2022/11/03 09:36:08;;;;;;;15.15;4.18;;;13.70;99.90;;;;;;5094388;28;20185;-65
2022/11/03 09:38:34;;;;;;;6.25;2.97;;;13.80;99.90;;;;;;5094595;28;20177;-65
2022/11/03 09:41:01;;;;;;;8.90;4.03;;;13.90;99.90;;;;;;5094456;28;20165;-65
2022/11/03 09:43:27;;;;;;;7.38;3.20;;;14.00;99.90;;;;;;5092918;28;20189;-65
2022/11/03 09:45:53;;;;;;;10.05;3.85;;;14.10;99.90;;;;;;5094057;28;20215;-65
2022/11/03 09:48:19;;;;;;;8.57;3.38;;;14.00;99.90;;;;;;5093944;28;20277;-65
2022/11/03 09:50:50;;;;;;;9.55;3.75;;;14.10;99.90;;;;;;5094667;28;20179;-65
2022/11/03 09:53:16;;;;;;;7.60;3.30;;;14.10;99.90;;;;;;5094177;28;20164;-65
2022/11/03 09:55:41;;;;;;;5.93;3.47;;;14.10;99.90;;;;;;5093997;28;20193;-65
2022/11/03 09:58:14;;;;;;;6.80;3.55;;;14.10;99.90;;;;;;5094339;28;20279;-65
2022/11/03 10:00:40;;;;;;;5.72;3.38;;;14.10;99.90;;;;;;5092705;28;20189;-65
2022/11/03 10:03:09;;;;;;;9.55;3.25;;;14.10;99.90;;;;;;5093900;28;20168;-65
2022/11/03 10:05:35;;;;;;;9.90;3.70;;;14.10;99.90;;;;;;5092725;28;20192;-66
2022/11/03 10:08:04;;;;;;;8.27;3.10;;;14.20;99.90;;;;;;5094099;28;20240;-65
2022/11/03 10:10:31;;;;;;;13.07;3.70;;;14.20;99.90;;;;;;5094021;28;20205;-65
2022/11/03 10:12:58;;;;;;;8.93;3.38;;;14.20;99.90;;;;;;5093768;28;20177;-65
2022/11/03 10:15:25;;;;;;;6.97;3.70;;;14.20;99.90;;;;;;5094195;28;20238;-65
2022/11/03 10:17:53;;;;;;;6.72;3.47;;;14.20;99.90;;;;;;5075451;28;20189;-65
2022/11/03 10:20:20;;;;;;;9.02;3.80;;;14.30;99.90;;;;;;5094020;28;20177;-65
2022/11/03 10:22:50;;;;;;;9.77;3.50;;;14.30;99.90;;;;;;5093751;28;20158;-65
2022/11/03 10:25:32;;;;;;;6.90;3.42;;;14.30;99.90;;;;;;5092407;28;20731;-66
2022/11/03 10:28:20;;;;;;;8.95;3.22;;;14.30;99.90;;;;;;5094797;28;20185;-70
2022/11/03 10:31:07;;;;;;;9.48;3.15;;;14.30;99.90;;;;;;5093300;28;20668;-65
2022/11/03 10:33:39;;;;;;;6.63;3.47;;;14.40;99.90;;;;;;5092786;28;20645;-65
2022/11/03 10:36:22;;;;;;;7.60;3.50;;;14.40;99.90;;;;;;5093535;28;20188;-65
2022/11/03 10:38:48;;;;;;;8.57;3.35;;;14.40;99.90;;;;;;5094024;28;20270;-65
2022/11/03 10:41:22;;;;;;;7.50;3.33;;;14.40;99.90;;;;;;5093558;28;20678;-66
2022/11/03 10:44:15;;;;;;;7.45;3.25;;;14.40;99.90;;;;;;5092191;28;20169;-63
2022/11/03 10:46:58;;;;;;;6.43;3.38;;;14.40;99.90;;;;;;5092116;28;20208;-63
2022/11/03 10:49:24;;;;;;;5.45;3.33;;;14.40;99.90;;;;;;5093679;28;20192;-63
2022/11/03 10:51:52;;;;;;;8.23;3.15;;;14.40;99.90;;;;;;5093222;28;20610;-64
2022/11/03 10:54:23;;;;;;;9.57;3.67;;;14.40;99.90;;;;;;5093297;28;20165;-64
2022/11/03 10:56:51;;;;;;;7.80;3.47;;;14.40;99.90;;;;;;5093529;28;20195;-64
2022/11/03 10:59:32;;;;;;;6.15;3.00;;;14.40;99.90;;;;;;5093208;28;20664;-63
2022/11/03 11:01:59;;;;;;;8.02;3.10;;;14.40;99.90;;;;;;5093396;28;20164;-64
2022/11/03 11:04:25;;;;;;;5.65;3.20;;;14.40;99.90;;;;;;5093576;28;20177;-63
2022/11/03 11:06:51;;;;;;;5.35;3.15;;;14.40;99.90;;;;;;5096879;28;20770;-64
2022/11/03 11:09:26;;;;;;;8.77;3.53;;;14.40;99.90;;;;;;5097069;28;20208;-63
2022/11/03 11:12:13;;;;;;;6.40;3.40;;;14.40;99.90;;;;;;5092331;28;20212;-66
2022/11/03 11:14:52;;;;;;;8.63;3.10;;;14.40;99.90;;;;;;5075883;28;20170;-67
2022/11/03 11:17:36;;;;;;;8.85;3.22;;;14.40;99.90;;;;;;5076871;28;20198;-66
2022/11/03 11:20:20;;;;;;;4.70;3.22;;;14.40;99.90;;;;;;5076731;28;20238;-67
2022/11/03 11:22:46;;;;;;;8.15;3.22;;;14.40;99.90;;;;;;5077547;28;20154;-67
2022/11/03 11:25:12;;;;;;;7.05;2.90;;;14.40;99.90;;;;;;5076955;28;20174;-67
2022/11/03 11:27:38;;;;;;;8.85;3.20;;;14.40;99.90;;;;;;5076696;28;20178;-67
2022/11/03 11:30:28;;;;;;;3.97;2.95;;;14.40;99.90;;;;;;5075276;28;20259;-66
2022/11/03 11:33:11;;;;;;;5.22;3.10;;;14.40;99.90;;;;;;5075687;28;20186;-64
2022/11/03 11:35:37;;;;;;;9.15;3.40;;;14.40;99.90;;;;;;5076501;28;20185;-63
2022/11/03 11:38:40;;;;;;;4.13;2.70;;;14.40;99.90;;;;;;5076262;28;20239;-63
2022/11/03 11:41:06;;;;;;;8.65;3.00;;;14.40;99.90;;;;;;5076555;28;20170;-63
2022/11/03 11:43:32;;;;;;;4.95;3.08;;;14.40;99.90;;;;;;5095636;28;20610;-63
2022/11/03 11:46:20;;;;;;;6.43;2.97;;;14.40;99.90;;;;;;5096426;28;20621;-64
2022/11/03 11:48:50;;;;;;;4.70;2.80;;;14.50;99.90;;;;;;5096411;28;20200;-64
2022/11/03 11:51:16;;;;;;;6.63;2.90;;;14.70;99.90;;;;;;5096450;28;20598;-64
2022/11/03 11:53:42;;;;;;;7.05;2.90;;;14.80;99.90;;;;;;5096437;28;20204;-64
2022/11/03 11:56:12;;;;;;;4.88;2.60;;;15.00;99.90;;;;;;5096501;28;20557;-64
2022/11/03 11:58:46;;;;;;;6.80;2.80;;;15.20;99.90;;;;;;5096575;28;20187;-64
2022/11/03 12:01:32;;;;;;;6.72;2.85;;;15.60;99.90;;;;;;5096431;28;20626;-65
2022/11/03 12:04:05;;;;;;;4.93;2.63;;;16.00;99.90;;;;;;5096398;28;20169;-64
2022/11/03 12:06:39;;;;;;;5.57;2.70;;;16.40;99.90;;;;;;5096088;28;20681;-64
2022/11/03 12:09:06;;;;;;;5.90;2.65;;;16.70;99.90;;;;;;5096178;28;20236;-64
2022/11/03 12:11:43;;;;;;;7.45;3.03;;;17.00;99.90;;;;;;5095862;28;20199;-64
2022/11/03 12:14:27;;;;;;;7.30;2.63;;;17.00;99.90;;;;;;5096115;28;20230;-64
2022/11/03 12:16:54;;;;;;;7.18;2.78;;;17.30;99.90;;;;;;5095746;28;20229;-64
2022/11/03 12:19:42;;;;;;;4.85;2.78;;;17.50;99.90;;;;;;5095862;28;20542;-64
2022/11/03 12:22:23;;;;;;;5.07;2.50;;;17.60;99.90;;;;;;5095857;28;20156;-64
2022/11/03 12:25:31;;;;;;;6.45;2.50;;;17.60;99.90;;;;;;5095808;28;20525;-64
2022/11/03 12:27:57;;;;;;;5.15;2.70;;;17.60;99.90;;;;;;5095679;28;20255;-64
2022/11/03 12:30:22;;;;;;;9.15;2.80;;;17.50;99.90;;;;;;5096035;28;20621;-64
2022/11/03 12:32:48;;;;;;;5.57;2.50;;;17.50;99.90;;;;;;5095421;28;20172;-64
2022/11/03 12:35:14;;;;;;;4.90;2.75;;;17.30;99.90;;;;;;5095437;28;20199;-64
2022/11/03 12:37:40;;;;;;;5.38;2.35;;;17.40;99.90;;;;;;5095538;28;20179;-64
2022/11/03 12:40:07;;;;;;;5.30;2.55;;;17.40;99.90;;;;;;5094449;28;20604;-64
2022/11/03 12:42:33;;;;;;;3.35;2.40;;;17.40;99.90;;;;;;5094032;28;20533;-64
2022/11/03 12:44:59;;;;;;;8.20;2.70;;;17.30;99.90;;;;;;5095228;28;20727;-65
2022/11/03 12:47:25;;;;;;;6.85;2.40;;;17.20;99.90;;;;;;5093850;28;20185;-64
2022/11/03 12:49:51;;;;;;;8.98;2.55;;;17.10;99.90;;;;;;5093897;28;20257;-64
2022/11/03 12:52:17;;;;;;;3.55;2.50;;;16.80;99.90;;;;;;5093873;28;20165;-64
2022/11/03 12:54:43;;;;;;;8.73;2.60;;;16.70;99.90;;;;;;5095356;28;20177;-64
2022/11/03 12:57:09;;;;;;;4.35;2.50;;;16.50;99.90;;;;;;5095027;28;20192;-64
2022/11/03 12:59:34;;;;;;;4.03;2.50;;;16.30;99.90;;;;;;5095103;28;20170;-64
2022/11/03 13:02:00;;;;;;;4.63;2.90;;;16.00;99.90;;;;;;5093491;28;20671;-64
2022/11/03 13:04:26;;;;;;;8.20;3.00;;;15.80;99.90;;;;;;5095043;28;20226;-64
2022/11/03 13:06:52;;;;;;;6.30;2.60;;;15.70;99.90;;;;;;5095621;28;20197;-64
2022/11/03 13:09:17;;;;;;;4.28;2.80;;;15.70;99.90;;;;;;5095263;28;20225;-64
2022/11/03 13:14:27;;;;;;;2.72;2.50;;;16.20;99.90;;;;;;5095003;28;20272;-64
2022/11/03 13:16:53;;;;;;;3.20;2.55;;;16.50;99.90;;;;;;5094441;28;20246;-65
2022/11/03 13:19:19;;;;;;;4.47;2.65;;;16.60;99.90;;;;;;5094608;28;20248;-64
2022/11/03 13:21:44;;;;;;;5.45;2.70;;;16.60;99.90;;;;;;5094733;28;20195;-64